sensor_id;sensor_type;location;lat;lon;timestamp;temperature;humidity
67050;DHT22;53955;52.442;13.284;2023-08-01T00:01:26;21.10;73.50
67050;DHT22;53955;52.442;13.284;2023-08-01T00:03:53;21.00;73.60
67050;DHT22;53955;52.442;13.284;2023-08-01T00:06:20;21.00;73.30
67050;DHT22;53955;52.442;13.284;2023-08-01T00:08:47;21.00;74.00
67050;DHT22;53955;52.442;13.284;2023-08-01T00:11:14;21.00;74.30
67050;DHT22;53955;52.442;13.284;2023-08-01T00:13:41;21.00;74.00
67050;DHT22;53955;52.442;13.284;2023-08-01T00:16:09;20.80;75.40
67050;DHT22;53955;52.442;13.284;2023-08-01T00:18:36;20.70;76.50
67050;DHT22;53955;52.442;13.284;2023-08-01T00:21:03;20.60;76.90
67050;DHT22;53955;52.442;13.284;2023-08-01T00:23:30;20.70;77.40
67050;DHT22;53955;52.442;13.284;2023-08-01T00:25:57;20.70;77.60
67050;DHT22;53955;52.442;13.284;2023-08-01T00:28:23;20.70;77.70
67050;DHT22;53955;52.442;13.284;2023-08-01T00:31:01;20.70;77.90
67050;DHT22;53955;52.442;13.284;2023-08-01T00:33:29;20.60;77.70
67050;DHT22;53955;52.442;13.284;2023-08-01T00:35:56;20.60;78.20
67050;DHT22;53955;52.442;13.284;2023-08-01T00:38:22;20.50;78.90
67050;DHT22;53955;52.442;13.284;2023-08-01T00:40:49;20.50;78.40
67050;DHT22;53955;52.442;13.284;2023-08-01T00:43:15;20.40;78.70
67050;DHT22;53955;52.442;13.284;2023-08-01T00:45:42;20.40;79.10
67050;DHT22;53955;52.442;13.284;2023-08-01T00:48:09;20.50;79.10
67050;DHT22;53955;52.442;13.284;2023-08-01T00:50:38;20.40;79.00
67050;DHT22;53955;52.442;13.284;2023-08-01T00:53:04;20.40;79.40
67050;DHT22;53955;52.442;13.284;2023-08-01T00:55:32;20.50;79.40
67050;DHT22;53955;52.442;13.284;2023-08-01T00:58:00;20.50;79.50
67050;DHT22;53955;52.442;13.284;2023-08-01T01:00:27;20.40;79.40
67050;DHT22;53955;52.442;13.284;2023-08-01T01:02:53;20.30;78.80
67050;DHT22;53955;52.442;13.284;2023-08-01T01:05:20;20.40;79.30
67050;DHT22;53955;52.442;13.284;2023-08-01T01:07:49;20.30;80.00
67050;DHT22;53955;52.442;13.284;2023-08-01T01:10:16;20.30;80.00
67050;DHT22;53955;52.442;13.284;2023-08-01T01:12:42;20.30;80.00
67050;DHT22;53955;52.442;13.284;2023-08-01T01:15:09;20.20;80.60
67050;DHT22;53955;52.442;13.284;2023-08-01T01:17:36;20.20;80.40
67050;DHT22;53955;52.442;13.284;2023-08-01T01:20:03;20.20;80.50
67050;DHT22;53955;52.442;13.284;2023-08-01T01:22:31;20.10;81.00
67050;DHT22;53955;52.442;13.284;2023-08-01T01:25:00;20.20;81.00
67050;DHT22;53955;52.442;13.284;2023-08-01T01:27:27;20.20;81.00
67050;DHT22;53955;52.442;13.284;2023-08-01T01:29:55;20.20;80.50
67050;DHT22;53955;52.442;13.284;2023-08-01T01:32:21;20.30;81.20
67050;DHT22;53955;52.442;13.284;2023-08-01T01:34:49;20.30;81.10
67050;DHT22;53955;52.442;13.284;2023-08-01T01:37:15;20.20;80.70
67050;DHT22;53955;52.442;13.284;2023-08-01T01:39:43;20.20;80.60
67050;DHT22;53955;52.442;13.284;2023-08-01T01:42:09;20.30;81.30
67050;DHT22;53955;52.442;13.284;2023-08-01T01:44:38;20.20;81.50
67050;DHT22;53955;52.442;13.284;2023-08-01T01:47:06;20.10;81.00
67050;DHT22;53955;52.442;13.284;2023-08-01T01:49:32;20.20;81.50
67050;DHT22;53955;52.442;13.284;2023-08-01T01:51:59;20.20;81.30
67050;DHT22;53955;52.442;13.284;2023-08-01T01:54:25;20.10;81.60
67050;DHT22;53955;52.442;13.284;2023-08-01T01:56:53;20.10;81.40
67050;DHT22;53955;52.442;13.284;2023-08-01T01:59:20;20.10;81.90
67050;DHT22;53955;52.442;13.284;2023-08-01T02:01:46;20.20;81.50
67050;DHT22;53955;52.442;13.284;2023-08-01T02:04:13;20.00;81.90
67050;DHT22;53955;52.442;13.284;2023-08-01T02:06:39;20.10;82.20
67050;DHT22;53955;52.442;13.284;2023-08-01T02:09:06;20.00;82.20
67050;DHT22;53955;52.442;13.284;2023-08-01T02:11:33;20.00;82.50
67050;DHT22;53955;52.442;13.284;2023-08-01T02:14:01;20.10;82.10
67050;DHT22;53955;52.442;13.284;2023-08-01T02:16:28;20.10;82.70
67050;DHT22;53955;52.442;13.284;2023-08-01T02:18:55;19.90;82.60
67050;DHT22;53955;52.442;13.284;2023-08-01T02:21:21;20.00;82.60
67050;DHT22;53955;52.442;13.284;2023-08-01T02:23:48;20.00;82.50
67050;DHT22;53955;52.442;13.284;2023-08-01T02:26:14;19.90;82.70
67050;DHT22;53955;52.442;13.284;2023-08-01T02:28:41;19.90;82.80
67050;DHT22;53955;52.442;13.284;2023-08-01T02:31:09;20.00;82.90
67050;DHT22;53955;52.442;13.284;2023-08-01T02:33:35;20.00;82.80
67050;DHT22;53955;52.442;13.284;2023-08-01T02:36:02;20.00;82.70
67050;DHT22;53955;52.442;13.284;2023-08-01T02:38:29;20.10;82.50
67050;DHT22;53955;52.442;13.284;2023-08-01T02:40:55;20.00;82.50
67050;DHT22;53955;52.442;13.284;2023-08-01T02:43:22;20.10;82.00
67050;DHT22;53955;52.442;13.284;2023-08-01T02:45:48;20.10;82.70
67050;DHT22;53955;52.442;13.284;2023-08-01T02:48:16;20.00;82.40
67050;DHT22;53955;52.442;13.284;2023-08-01T02:50:43;20.00;82.20
67050;DHT22;53955;52.442;13.284;2023-08-01T02:53:10;20.00;82.10
67050;DHT22;53955;52.442;13.284;2023-08-01T02:55:36;20.10;82.60
67050;DHT22;53955;52.442;13.284;2023-08-01T02:58:03;20.10;83.00
67050;DHT22;53955;52.442;13.284;2023-08-01T03:00:30;20.00;82.40
67050;DHT22;53955;52.442;13.284;2023-08-01T03:02:57;20.00;82.80
67050;DHT22;53955;52.442;13.284;2023-08-01T03:05:25;20.10;82.90
67050;DHT22;53955;52.442;13.284;2023-08-01T03:07:52;20.10;82.40
67050;DHT22;53955;52.442;13.284;2023-08-01T03:10:18;20.10;82.50
67050;DHT22;53955;52.442;13.284;2023-08-01T03:12:45;20.10;82.50
67050;DHT22;53955;52.442;13.284;2023-08-01T03:15:11;20.10;82.60
67050;DHT22;53955;52.442;13.284;2023-08-01T03:17:38;20.10;82.50
67050;DHT22;53955;52.442;13.284;2023-08-01T03:20:06;20.10;81.90
67050;DHT22;53955;52.442;13.284;2023-08-01T03:22:37;20.20;82.40
67050;DHT22;53955;52.442;13.284;2023-08-01T03:25:04;20.20;82.40
67050;DHT22;53955;52.442;13.284;2023-08-01T03:27:33;20.10;82.40
67050;DHT22;53955;52.442;13.284;2023-08-01T03:30:00;20.10;82.20
67050;DHT22;53955;52.442;13.284;2023-08-01T03:32:26;20.10;82.20
67050;DHT22;53955;52.442;13.284;2023-08-01T03:34:53;20.00;82.00
67050;DHT22;53955;52.442;13.284;2023-08-01T03:37:19;20.00;81.90
67050;DHT22;53955;52.442;13.284;2023-08-01T03:39:47;20.00;82.60
67050;DHT22;53955;52.442;13.284;2023-08-01T03:42:14;20.00;82.50
67050;DHT22;53955;52.442;13.284;2023-08-01T03:44:40;20.00;82.60
67050;DHT22;53955;52.442;13.284;2023-08-01T03:47:07;19.90;82.80
67050;DHT22;53955;52.442;13.284;2023-08-01T03:49:33;19.90;82.90
67050;DHT22;53955;52.442;13.284;2023-08-01T03:52:00;19.90;82.40
67050;DHT22;53955;52.442;13.284;2023-08-01T03:54:27;19.90;83.00
67050;DHT22;53955;52.442;13.284;2023-08-01T03:56:55;20.00;82.80
67050;DHT22;53955;52.442;13.284;2023-08-01T03:59:22;20.00;82.50
67050;DHT22;53955;52.442;13.284;2023-08-01T04:01:48;20.00;82.20
67050;DHT22;53955;52.442;13.284;2023-08-01T04:04:15;20.00;82.20
67050;DHT22;53955;52.442;13.284;2023-08-01T04:06:42;20.00;82.40
67050;DHT22;53955;52.442;13.284;2023-08-01T04:09:09;20.00;82.20
67050;DHT22;53955;52.442;13.284;2023-08-01T04:11:35;20.00;82.10
67050;DHT22;53955;52.442;13.284;2023-08-01T04:14:03;20.00;82.20
67050;DHT22;53955;52.442;13.284;2023-08-01T04:16:30;20.00;82.10
67050;DHT22;53955;52.442;13.284;2023-08-01T04:18:56;20.10;81.90
67050;DHT22;53955;52.442;13.284;2023-08-01T04:21:23;20.00;81.90
67050;DHT22;53955;52.442;13.284;2023-08-01T04:23:49;20.00;81.80
67050;DHT22;53955;52.442;13.284;2023-08-01T04:26:16;20.10;82.40
67050;DHT22;53955;52.442;13.284;2023-08-01T04:28:42;20.10;81.80
67050;DHT22;53955;52.442;13.284;2023-08-01T04:31:10;20.10;81.80
67050;DHT22;53955;52.442;13.284;2023-08-01T04:33:37;20.10;81.70
67050;DHT22;53955;52.442;13.284;2023-08-01T04:36:04;20.10;81.70
67050;DHT22;53955;52.442;13.284;2023-08-01T04:38:30;20.20;81.80
67050;DHT22;53955;52.442;13.284;2023-08-01T04:40:57;20.10;81.70
67050;DHT22;53955;52.442;13.284;2023-08-01T04:43:23;20.10;81.90
67050;DHT22;53955;52.442;13.284;2023-08-01T04:45:50;20.10;82.10
67050;DHT22;53955;52.442;13.284;2023-08-01T04:48:18;20.20;82.40
67050;DHT22;53955;52.442;13.284;2023-08-01T04:50:44;20.10;82.10
67050;DHT22;53955;52.442;13.284;2023-08-01T04:53:12;20.20;82.60
67050;DHT22;53955;52.442;13.284;2023-08-01T04:55:40;20.10;82.20
67050;DHT22;53955;52.442;13.284;2023-08-01T04:58:06;20.10;82.40
67050;DHT22;53955;52.442;13.284;2023-08-01T05:00:33;20.10;82.30
67050;DHT22;53955;52.442;13.284;2023-08-01T05:02:59;20.00;82.70
67050;DHT22;53955;52.442;13.284;2023-08-01T05:05:27;20.10;83.20
67050;DHT22;53955;52.442;13.284;2023-08-01T05:07:54;20.10;82.80
67050;DHT22;53955;52.442;13.284;2023-08-01T05:10:20;20.10;82.60
67050;DHT22;53955;52.442;13.284;2023-08-01T05:12:47;20.00;82.80
67050;DHT22;53955;52.442;13.284;2023-08-01T05:15:13;20.00;83.40
67050;DHT22;53955;52.442;13.284;2023-08-01T05:17:40;20.10;82.80
67050;DHT22;53955;52.442;13.284;2023-08-01T05:20:07;20.10;83.00
67050;DHT22;53955;52.442;13.284;2023-08-01T05:22:35;20.20;82.60
67050;DHT22;53955;52.442;13.284;2023-08-01T05:25:02;20.20;82.50
67050;DHT22;53955;52.442;13.284;2023-08-01T05:27:30;20.10;82.80
67050;DHT22;53955;52.442;13.284;2023-08-01T05:29:56;20.10;82.80
67050;DHT22;53955;52.442;13.284;2023-08-01T05:32:23;20.20;83.40
67050;DHT22;53955;52.442;13.284;2023-08-01T05:34:49;20.20;82.70
67050;DHT22;53955;52.442;13.284;2023-08-01T05:37:16;20.10;82.80
67050;DHT22;53955;52.442;13.284;2023-08-01T05:39:44;20.20;82.90
67050;DHT22;53955;52.442;13.284;2023-08-01T05:42:10;20.20;83.00
67050;DHT22;53955;52.442;13.284;2023-08-01T05:44:37;20.30;82.80
67050;DHT22;53955;52.442;13.284;2023-08-01T05:47:04;20.20;82.30
67050;DHT22;53955;52.442;13.284;2023-08-01T05:49:30;20.40;82.30
67050;DHT22;53955;52.442;13.284;2023-08-01T05:51:57;20.30;82.50
67050;DHT22;53955;52.442;13.284;2023-08-01T05:54:23;20.30;83.00
67050;DHT22;53955;52.442;13.284;2023-08-01T05:56:51;20.40;82.50
67050;DHT22;53955;52.442;13.284;2023-08-01T05:59:18;20.30;82.00
67050;DHT22;53955;52.442;13.284;2023-08-01T06:01:45;20.40;82.00
67050;DHT22;53955;52.442;13.284;2023-08-01T06:04:11;20.30;82.50
67050;DHT22;53955;52.442;13.284;2023-08-01T06:06:38;20.30;82.50
67050;DHT22;53955;52.442;13.284;2023-08-01T06:09:04;20.30;82.50
67050;DHT22;53955;52.442;13.284;2023-08-01T06:11:31;20.30;82.40
67050;DHT22;53955;52.442;13.284;2023-08-01T06:14:00;20.30;82.60
67050;DHT22;53955;52.442;13.284;2023-08-01T06:16:26;20.30;82.60
67050;DHT22;53955;52.442;13.284;2023-08-01T06:18:53;20.30;82.50
67050;DHT22;53955;52.442;13.284;2023-08-01T06:21:20;20.30;83.00
67050;DHT22;53955;52.442;13.284;2023-08-01T06:23:46;20.40;83.20
67050;DHT22;53955;52.442;13.284;2023-08-01T06:26:13;20.40;82.50
67050;DHT22;53955;52.442;13.284;2023-08-01T06:28:40;20.30;82.70
67050;DHT22;53955;52.442;13.284;2023-08-01T06:31:08;20.30;82.10
67050;DHT22;53955;52.442;13.284;2023-08-01T06:33:35;20.30;82.40
67050;DHT22;53955;52.442;13.284;2023-08-01T06:36:02;20.40;82.90
67050;DHT22;53955;52.442;13.284;2023-08-01T06:38:28;20.40;83.10
67050;DHT22;53955;52.442;13.284;2023-08-01T06:40:55;20.40;83.30
67050;DHT22;53955;52.442;13.284;2023-08-01T06:43:21;20.40;82.50
67050;DHT22;53955;52.442;13.284;2023-08-01T06:45:50;20.40;82.80
67050;DHT22;53955;52.442;13.284;2023-08-01T06:48:17;20.50;82.30
67050;DHT22;53955;52.442;13.284;2023-08-01T06:50:44;20.50;82.90
67050;DHT22;53955;52.442;13.284;2023-08-01T06:53:11;20.40;82.50
67050;DHT22;53955;52.442;13.284;2023-08-01T06:55:37;20.40;82.80
67050;DHT22;53955;52.442;13.284;2023-08-01T06:58:05;20.40;83.10
67050;DHT22;53955;52.442;13.284;2023-08-01T07:00:32;20.40;82.30
67050;DHT22;53955;52.442;13.284;2023-08-01T07:02:58;20.40;82.70
67050;DHT22;53955;52.442;13.284;2023-08-01T07:05:26;20.40;83.00
67050;DHT22;53955;52.442;13.284;2023-08-01T07:07:53;20.40;82.70
67050;DHT22;53955;52.442;13.284;2023-08-01T07:10:19;20.50;82.80
67050;DHT22;53955;52.442;13.284;2023-08-01T07:12:46;20.50;82.40
67050;DHT22;53955;52.442;13.284;2023-08-01T07:15:14;20.60;83.20
67050;DHT22;53955;52.442;13.284;2023-08-01T07:17:40;20.50;82.40
67050;DHT22;53955;52.442;13.284;2023-08-01T07:20:08;20.70;82.50
67050;DHT22;53955;52.442;13.284;2023-08-01T07:22:36;20.90;82.30
67050;DHT22;53955;52.442;13.284;2023-08-01T07:25:03;20.90;80.70
67050;DHT22;53955;52.442;13.284;2023-08-01T07:27:29;20.90;79.70
67050;DHT22;53955;52.442;13.284;2023-08-01T07:29:56;21.00;79.80
67050;DHT22;53955;52.442;13.284;2023-08-01T07:32:23;21.20;79.50
67050;DHT22;53955;52.442;13.284;2023-08-01T07:34:49;21.00;78.90
67050;DHT22;53955;52.442;13.284;2023-08-01T07:37:16;21.20;79.40
67050;DHT22;53955;52.442;13.284;2023-08-01T07:39:43;21.40;79.10
67050;DHT22;53955;52.442;13.284;2023-08-01T07:42:10;21.50;78.80
67050;DHT22;53955;52.442;13.284;2023-08-01T07:44:37;21.70;78.00
67050;DHT22;53955;52.442;13.284;2023-08-01T07:47:04;21.80;76.90
67050;DHT22;53955;52.442;13.284;2023-08-01T07:49:30;21.90;77.40
67050;DHT22;53955;52.442;13.284;2023-08-01T07:51:57;22.00;76.50
67050;DHT22;53955;52.442;13.284;2023-08-01T07:54:24;22.00;76.50
67050;DHT22;53955;52.442;13.284;2023-08-01T07:56:52;22.00;76.50
67050;DHT22;53955;52.442;13.284;2023-08-01T07:59:18;21.90;76.20
67050;DHT22;53955;52.442;13.284;2023-08-01T08:01:45;21.90;77.00
67050;DHT22;53955;52.442;13.284;2023-08-01T08:04:11;22.10;77.20
67050;DHT22;53955;52.442;13.284;2023-08-01T08:06:39;22.20;75.30
67050;DHT22;53955;52.442;13.284;2023-08-01T08:09:06;22.40;75.60
67050;DHT22;53955;52.442;13.284;2023-08-01T08:11:33;22.60;74.40
67050;DHT22;53955;52.442;13.284;2023-08-01T08:14:01;22.70;74.20
67050;DHT22;53955;52.442;13.284;2023-08-01T08:16:27;23.00;73.60
67050;DHT22;53955;52.442;13.284;2023-08-01T08:18:54;23.30;73.80
67050;DHT22;53955;52.442;13.284;2023-08-01T08:21:20;23.40;72.20
67050;DHT22;53955;52.442;13.284;2023-08-01T08:23:47;23.60;70.90
67050;DHT22;53955;52.442;13.284;2023-08-01T08:26:13;23.70;67.60
67050;DHT22;53955;52.442;13.284;2023-08-01T08:28:40;23.70;68.30
67050;DHT22;53955;52.442;13.284;2023-08-01T08:31:09;23.60;71.20
67050;DHT22;53955;52.442;13.284;2023-08-01T08:33:35;23.50;71.70
67050;DHT22;53955;52.442;13.284;2023-08-01T08:36:02;23.40;70.70
67050;DHT22;53955;52.442;13.284;2023-08-01T08:38:29;23.30;71.50
67050;DHT22;53955;52.442;13.284;2023-08-01T08:41:05;23.40;71.60
67050;DHT22;53955;52.442;13.284;2023-08-01T08:43:33;23.40;71.40
67050;DHT22;53955;52.442;13.284;2023-08-01T08:46:01;23.20;70.70
67050;DHT22;53955;52.442;13.284;2023-08-01T08:48:30;23.20;71.10
67050;DHT22;53955;52.442;13.284;2023-08-01T08:50:57;23.10;71.60
67050;DHT22;53955;52.442;13.284;2023-08-01T08:53:24;23.00;72.30
67050;DHT22;53955;52.442;13.284;2023-08-01T08:55:51;23.10;72.50
67050;DHT22;53955;52.442;13.284;2023-08-01T08:58:17;23.10;71.90
67050;DHT22;53955;52.442;13.284;2023-08-01T09:00:44;23.10;72.10
67050;DHT22;53955;52.442;13.284;2023-08-01T09:03:11;23.20;71.10
67050;DHT22;53955;52.442;13.284;2023-08-01T09:05:44;23.30;69.70
67050;DHT22;53955;52.442;13.284;2023-08-01T09:08:16;23.40;67.90
67050;DHT22;53955;52.442;13.284;2023-08-01T09:10:42;23.40;68.10
67050;DHT22;53955;52.442;13.284;2023-08-01T09:13:09;23.60;67.90
67050;DHT22;53955;52.442;13.284;2023-08-01T09:15:37;23.70;64.50
67050;DHT22;53955;52.442;13.284;2023-08-01T09:18:06;23.70;64.20
67050;DHT22;53955;52.442;13.284;2023-08-01T09:20:45;23.70;63.70
67050;DHT22;53955;52.442;13.284;2023-08-01T09:23:12;23.70;62.80
67050;DHT22;53955;52.442;13.284;2023-08-01T09:25:39;23.70;63.40
67050;DHT22;53955;52.442;13.284;2023-08-01T09:28:16;23.60;63.60
67050;DHT22;53955;52.442;13.284;2023-08-01T09:30:47;23.50;66.10
67050;DHT22;53955;52.442;13.284;2023-08-01T09:33:14;23.30;65.50
67050;DHT22;53955;52.442;13.284;2023-08-01T09:35:42;23.10;66.90
67050;DHT22;53955;52.442;13.284;2023-08-01T09:38:12;22.90;67.00
67050;DHT22;53955;52.442;13.284;2023-08-01T09:40:39;22.90;67.50
67050;DHT22;53955;52.442;13.284;2023-08-01T09:43:06;22.70;68.00
67050;DHT22;53955;52.442;13.284;2023-08-01T09:45:33;22.80;68.00
67050;DHT22;53955;52.442;13.284;2023-08-01T09:48:01;22.80;67.00
67050;DHT22;53955;52.442;13.284;2023-08-01T09:50:27;23.00;66.60
67050;DHT22;53955;52.442;13.284;2023-08-01T09:52:55;23.10;66.70
67050;DHT22;53955;52.442;13.284;2023-08-01T09:55:26;23.20;66.50
67050;DHT22;53955;52.442;13.284;2023-08-01T09:57:54;23.20;66.70
67050;DHT22;53955;52.442;13.284;2023-08-01T10:00:23;23.20;66.30
67050;DHT22;53955;52.442;13.284;2023-08-01T10:02:52;23.00;66.70
67050;DHT22;53955;52.442;13.284;2023-08-01T10:05:20;23.10;67.60
67050;DHT22;53955;52.442;13.284;2023-08-01T10:07:48;22.90;67.60
67050;DHT22;53955;52.442;13.284;2023-08-01T10:10:16;22.90;67.20
67050;DHT22;53955;52.442;13.284;2023-08-01T10:12:45;22.80;68.40
67050;DHT22;53955;52.442;13.284;2023-08-01T10:15:13;22.60;68.00
67050;DHT22;53955;52.442;13.284;2023-08-01T10:17:41;22.60;68.40
67050;DHT22;53955;52.442;13.284;2023-08-01T10:20:08;22.60;69.00
67050;DHT22;53955;52.442;13.284;2023-08-01T10:22:35;22.50;69.30
67050;DHT22;53955;52.442;13.284;2023-08-01T10:25:03;22.60;69.50
67050;DHT22;53955;52.442;13.284;2023-08-01T10:27:32;22.60;69.20
67050;DHT22;53955;52.442;13.284;2023-08-01T10:30:02;22.60;68.70
67050;DHT22;53955;52.442;13.284;2023-08-01T10:32:33;22.70;69.40
67050;DHT22;53955;52.442;13.284;2023-08-01T10:35:00;22.60;69.20
67050;DHT22;53955;52.442;13.284;2023-08-01T10:37:26;22.60;70.10
67050;DHT22;53955;52.442;13.284;2023-08-01T10:39:57;22.70;70.30
67050;DHT22;53955;52.442;13.284;2023-08-01T10:42:24;22.50;72.50
67050;DHT22;53955;52.442;13.284;2023-08-01T10:44:52;22.30;74.80
67050;DHT22;53955;52.442;13.284;2023-08-01T10:47:25;22.10;76.00
67050;DHT22;53955;52.442;13.284;2023-08-01T10:49:52;22.00;76.20
67050;DHT22;53955;52.442;13.284;2023-08-01T10:52:20;21.90;76.60
67050;DHT22;53955;52.442;13.284;2023-08-01T10:54:56;21.90;77.00
67050;DHT22;53955;52.442;13.284;2023-08-01T10:57:23;21.90;77.70
67050;DHT22;53955;52.442;13.284;2023-08-01T10:59:51;21.90;77.80
67050;DHT22;53955;52.442;13.284;2023-08-01T11:02:25;21.90;78.00
67050;DHT22;53955;52.442;13.284;2023-08-01T11:04:56;21.80;77.30
67050;DHT22;53955;52.442;13.284;2023-08-01T11:07:23;21.90;77.40
67050;DHT22;53955;52.442;13.284;2023-08-01T11:09:49;21.70;77.30
67050;DHT22;53955;52.442;13.284;2023-08-01T11:12:16;21.80;77.40
67050;DHT22;53955;52.442;13.284;2023-08-01T11:14:44;21.90;77.20
67050;DHT22;53955;52.442;13.284;2023-08-01T11:17:14;21.80;76.60
67050;DHT22;53955;52.442;13.284;2023-08-01T11:19:40;21.80;77.30
67050;DHT22;53955;52.442;13.284;2023-08-01T11:22:09;21.80;77.00
67050;DHT22;53955;52.442;13.284;2023-08-01T11:24:36;21.90;77.00
67050;DHT22;53955;52.442;13.284;2023-08-01T11:27:03;21.90;75.80
67050;DHT22;53955;52.442;13.284;2023-08-01T11:29:30;22.00;75.20
67050;DHT22;53955;52.442;13.284;2023-08-01T11:32:00;22.10;74.90
67050;DHT22;53955;52.442;13.284;2023-08-01T11:34:28;22.00;74.80
67050;DHT22;53955;52.442;13.284;2023-08-01T11:36:54;22.20;74.60
67050;DHT22;53955;52.442;13.284;2023-08-01T11:39:21;22.20;75.20
67050;DHT22;53955;52.442;13.284;2023-08-01T11:41:48;22.20;74.20
67050;DHT22;53955;52.442;13.284;2023-08-01T11:44:15;22.20;73.90
67050;DHT22;53955;52.442;13.284;2023-08-01T11:46:41;22.20;72.30
67050;DHT22;53955;52.442;13.284;2023-08-01T11:49:13;22.20;72.70
67050;DHT22;53955;52.442;13.284;2023-08-01T11:51:43;22.30;73.90
67050;DHT22;53955;52.442;13.284;2023-08-01T11:54:10;22.30;74.10
67050;DHT22;53955;52.442;13.284;2023-08-01T11:56:38;22.50;73.00
67050;DHT22;53955;52.442;13.284;2023-08-01T11:59:08;22.50;74.00
67050;DHT22;53955;52.442;13.284;2023-08-01T12:01:39;22.80;71.90
67050;DHT22;53955;52.442;13.284;2023-08-01T12:04:06;22.90;71.80
67050;DHT22;53955;52.442;13.284;2023-08-01T12:06:33;23.10;70.00
67050;DHT22;53955;52.442;13.284;2023-08-01T12:09:08;23.30;69.50
67050;DHT22;53955;52.442;13.284;2023-08-01T12:11:35;23.50;69.40
67050;DHT22;53955;52.442;13.284;2023-08-01T12:14:02;23.80;65.90
67050;DHT22;53955;52.442;13.284;2023-08-01T12:16:29;24.00;65.40
67050;DHT22;53955;52.442;13.284;2023-08-01T12:18:56;24.00;63.00
67050;DHT22;53955;52.442;13.284;2023-08-01T12:21:23;23.90;63.00
67050;DHT22;53955;52.442;13.284;2023-08-01T12:23:50;23.80;62.40
67050;DHT22;53955;52.442;13.284;2023-08-01T12:26:18;23.60;63.00
67050;DHT22;53955;52.442;13.284;2023-08-01T12:28:44;23.60;65.40
67050;DHT22;53955;52.442;13.284;2023-08-01T12:31:15;23.70;62.30
67050;DHT22;53955;52.442;13.284;2023-08-01T12:33:42;23.70;61.10
67050;DHT22;53955;52.442;13.284;2023-08-01T12:36:09;23.70;61.90
67050;DHT22;53955;52.442;13.284;2023-08-01T12:38:35;23.90;60.80
67050;DHT22;53955;52.442;13.284;2023-08-01T12:41:02;24.00;60.70
67050;DHT22;53955;52.442;13.284;2023-08-01T12:43:30;24.10;60.00
67050;DHT22;53955;52.442;13.284;2023-08-01T12:45:56;24.10;59.70
67050;DHT22;53955;52.442;13.284;2023-08-01T12:48:24;24.20;60.20
67050;DHT22;53955;52.442;13.284;2023-08-01T12:50:50;24.00;59.10
67050;DHT22;53955;52.442;13.284;2023-08-01T12:53:18;24.00;60.00
67050;DHT22;53955;52.442;13.284;2023-08-01T12:55:45;23.80;60.60
67050;DHT22;53955;52.442;13.284;2023-08-01T12:58:13;23.70;60.80
67050;DHT22;53955;52.442;13.284;2023-08-01T13:00:42;23.80;60.70
67050;DHT22;53955;52.442;13.284;2023-08-01T13:03:08;23.80;59.50
67050;DHT22;53955;52.442;13.284;2023-08-01T13:05:36;23.90;59.90
67050;DHT22;53955;52.442;13.284;2023-08-01T13:08:03;23.90;58.40
67050;DHT22;53955;52.442;13.284;2023-08-01T13:10:30;24.00;59.30
67050;DHT22;53955;52.442;13.284;2023-08-01T13:12:57;24.10;59.20
67050;DHT22;53955;52.442;13.284;2023-08-01T13:15:23;24.20;58.90
67050;DHT22;53955;52.442;13.284;2023-08-01T13:17:52;24.40;58.00
67050;DHT22;53955;52.442;13.284;2023-08-01T13:20:18;24.50;57.70
67050;DHT22;53955;52.442;13.284;2023-08-01T13:22:46;24.50;57.80
67050;DHT22;53955;52.442;13.284;2023-08-01T13:25:13;24.40;56.80
67050;DHT22;53955;52.442;13.284;2023-08-01T13:27:40;24.50;56.40
67050;DHT22;53955;52.442;13.284;2023-08-01T13:30:08;24.50;58.10
67050;DHT22;53955;52.442;13.284;2023-08-01T13:32:34;24.50;57.50
67050;DHT22;53955;52.442;13.284;2023-08-01T13:35:02;24.40;56.40
67050;DHT22;53955;52.442;13.284;2023-08-01T13:37:29;24.70;56.40
67050;DHT22;53955;52.442;13.284;2023-08-01T13:39:57;24.70;56.10
67050;DHT22;53955;52.442;13.284;2023-08-01T13:42:24;24.60;55.30
67050;DHT22;53955;52.442;13.284;2023-08-01T13:44:51;24.60;55.10
67050;DHT22;53955;52.442;13.284;2023-08-01T13:47:19;24.40;55.10
67050;DHT22;53955;52.442;13.284;2023-08-01T13:49:46;24.50;55.60
67050;DHT22;53955;52.442;13.284;2023-08-01T13:52:14;24.40;55.50
67050;DHT22;53955;52.442;13.284;2023-08-01T13:54:41;24.40;55.20
67050;DHT22;53955;52.442;13.284;2023-08-01T13:57:07;24.40;55.10
67050;DHT22;53955;52.442;13.284;2023-08-01T13:59:34;24.40;54.00
67050;DHT22;53955;52.442;13.284;2023-08-01T14:02:02;24.40;54.90
67050;DHT22;53955;52.442;13.284;2023-08-01T14:04:28;24.30;55.00
67050;DHT22;53955;52.442;13.284;2023-08-01T14:06:55;24.30;54.80
67050;DHT22;53955;52.442;13.284;2023-08-01T14:09:23;24.40;54.40
67050;DHT22;53955;52.442;13.284;2023-08-01T14:11:49;24.60;53.70
67050;DHT22;53955;52.442;13.284;2023-08-01T14:14:16;24.70;53.90
67050;DHT22;53955;52.442;13.284;2023-08-01T14:16:42;24.70;53.00
67050;DHT22;53955;52.442;13.284;2023-08-01T14:19:09;24.60;52.50
67050;DHT22;53955;52.442;13.284;2023-08-01T14:21:36;24.50;52.50
67050;DHT22;53955;52.442;13.284;2023-08-01T14:24:02;24.50;52.20
67050;DHT22;53955;52.442;13.284;2023-08-01T14:26:30;24.20;51.50
67050;DHT22;53955;52.442;13.284;2023-08-01T14:28:57;24.10;52.30
67050;DHT22;53955;52.442;13.284;2023-08-01T14:31:23;24.10;52.70
67050;DHT22;53955;52.442;13.284;2023-08-01T14:33:50;24.10;52.90
67050;DHT22;53955;52.442;13.284;2023-08-01T14:36:16;24.20;52.90
67050;DHT22;53955;52.442;13.284;2023-08-01T14:38:43;24.40;52.90
67050;DHT22;53955;52.442;13.284;2023-08-01T14:41:09;24.60;53.70
67050;DHT22;53955;52.442;13.284;2023-08-01T14:43:38;24.80;52.10
67050;DHT22;53955;52.442;13.284;2023-08-01T14:46:04;24.90;51.60
67050;DHT22;53955;52.442;13.284;2023-08-01T14:48:31;24.90;50.30
67050;DHT22;53955;52.442;13.284;2023-08-01T14:50:57;24.90;50.30
67050;DHT22;53955;52.442;13.284;2023-08-01T14:53:24;25.10;51.30
67050;DHT22;53955;52.442;13.284;2023-08-01T14:55:56;24.90;49.90
67050;DHT22;53955;52.442;13.284;2023-08-01T14:58:25;24.80;49.70
67050;DHT22;53955;52.442;13.284;2023-08-01T15:00:52;24.50;50.40
67050;DHT22;53955;52.442;13.284;2023-08-01T15:03:19;24.50;50.20
67050;DHT22;53955;52.442;13.284;2023-08-01T15:05:45;24.30;51.40
67050;DHT22;53955;52.442;13.284;2023-08-01T15:08:12;24.40;51.10
67050;DHT22;53955;52.442;13.284;2023-08-01T15:10:39;24.30;50.50
67050;DHT22;53955;52.442;13.284;2023-08-01T15:13:05;24.20;49.30
67050;DHT22;53955;52.442;13.284;2023-08-01T15:15:35;24.20;49.90